sensor_id;sensor_type;location;lat;lon;timestamp;P1;durP1;ratioP1;P2;durP2;ratioP2
40373;SDS011;26079;45.958;12.492;2023-05-10T00:01:37;2.03;;;1.48;;
40373;SDS011;26079;45.958;12.492;2023-05-10T00:04:03;2.67;;;2.25;;
40373;SDS011;26079;45.958;12.492;2023-05-10T00:06:29;1.80;;;1.48;;
40373;SDS011;26079;45.958;12.492;2023-05-10T00:08:55;2.55;;;2.35;;
40373;SDS011;26079;45.958;12.492;2023-05-10T00:11:20;4.72;;;1.65;;
40373;SDS011;26079;45.958;12.492;2023-05-10T00:13:46;2.03;;;1.80;;
40373;SDS011;26079;45.958;12.492;2023-05-10T00:16:12;3.55;;;1.85;;
40373;SDS011;26079;45.958;12.492;2023-05-10T00:18:38;3.35;;;2.25;;
40373;SDS011;26079;45.958;12.492;2023-05-10T00:21:04;1.88;;;1.63;;
40373;SDS011;26079;45.958;12.492;2023-05-10T00:23:30;3.28;;;1.75;;
40373;SDS011;26079;45.958;12.492;2023-05-10T00:25:56;1.67;;;1.50;;
40373;SDS011;26079;45.958;12.492;2023-05-10T00:28:21;1.77;;;1.60;;
40373;SDS011;26079;45.958;12.492;2023-05-10T00:30:47;3.17;;;2.08;;
40373;SDS011;26079;45.958;12.492;2023-05-10T00:33:13;1.50;;;1.40;;
40373;SDS011;26079;45.958;12.492;2023-05-10T00:35:38;5.38;;;2.22;;
40373;SDS011;26079;45.958;12.492;2023-05-10T00:38:04;3.65;;;1.80;;
40373;SDS011;26079;45.958;12.492;2023-05-10T00:40:30;2.90;;;1.45;;
40373;SDS011;26079;45.958;12.492;2023-05-10T00:42:56;2.35;;;1.70;;
40373;SDS011;26079;45.958;12.492;2023-05-10T00:45:23;4.22;;;1.77;;
40373;SDS011;26079;45.958;12.492;2023-05-10T00:47:50;2.58;;;2.22;;
40373;SDS011;26079;45.958;12.492;2023-05-10T00:50:19;2.42;;;1.70;;
40373;SDS011;26079;45.958;12.492;2023-05-10T00:52:46;2.22;;;1.58;;
40373;SDS011;26079;45.958;12.492;2023-05-10T00:55:12;1.77;;;1.40;;
40373;SDS011;26079;45.958;12.492;2023-05-10T00:57:38;6.07;;;1.77;;
40373;SDS011;26079;45.958;12.492;2023-05-10T01:00:04;3.00;;;1.65;;
40373;SDS011;26079;45.958;12.492;2023-05-10T01:02:30;3.53;;;1.65;;
40373;SDS011;26079;45.958;12.492;2023-05-10T01:04:58;3.47;;;1.73;;
40373;SDS011;26079;45.958;12.492;2023-05-10T01:07:24;1.70;;;1.60;;
40373;SDS011;26079;45.958;12.492;2023-05-10T01:09:50;5.07;;;2.72;;
40373;SDS011;26079;45.958;12.492;2023-05-10T01:12:16;2.88;;;1.45;;
40373;SDS011;26079;45.958;12.492;2023-05-10T01:14:42;1.55;;;1.42;;
40373;SDS011;26079;45.958;12.492;2023-05-10T01:17:08;6.28;;;1.95;;
40373;SDS011;26079;45.958;12.492;2023-05-10T01:19:34;4.38;;;1.80;;
40373;SDS011;26079;45.958;12.492;2023-05-10T01:22:21;2.30;;;1.90;;
40373;SDS011;26079;45.958;12.492;2023-05-10T01:27:42;1.90;;;1.40;;
40373;SDS011;26079;45.958;12.492;2023-05-10T01:35:51;4.38;;;1.63;;
40373;SDS011;26079;45.958;12.492;2023-05-10T01:41:40;2.15;;;1.58;;
40373;SDS011;26079;45.958;12.492;2023-05-10T01:46:43;1.42;;;1.33;;
40373;SDS011;26079;45.958;12.492;2023-05-10T01:49:16;4.32;;;2.17;;
40373;SDS011;26079;45.958;12.492;2023-05-10T01:51:50;2.00;;;1.80;;
40373;SDS011;26079;45.958;12.492;2023-05-10T01:54:20;16.67;;;2.03;;
40373;SDS011;26079;45.958;12.492;2023-05-10T01:56:48;3.70;;;2.08;;
40373;SDS011;26079;45.958;12.492;2023-05-10T01:59:18;3.70;;;1.85;;
40373;SDS011;26079;45.958;12.492;2023-05-10T02:01:45;2.22;;;1.70;;
40373;SDS011;26079;45.958;12.492;2023-05-10T02:04:13;2.58;;;1.92;;
40373;SDS011;26079;45.958;12.492;2023-05-10T02:06:42;2.60;;;1.90;;
40373;SDS011;26079;45.958;12.492;2023-05-10T02:09:10;4.13;;;2.42;;
40373;SDS011;26079;45.958;12.492;2023-05-10T02:11:41;4.85;;;1.92;;
40373;SDS011;26079;45.958;12.492;2023-05-10T02:14:08;2.00;;;1.85;;
40373;SDS011;26079;45.958;12.492;2023-05-10T02:16:36;1.52;;;1.42;;
40373;SDS011;26079;45.958;12.492;2023-05-10T02:19:04;7.65;;;1.90;;
40373;SDS011;26079;45.958;12.492;2023-05-10T02:21:31;3.35;;;2.08;;
40373;SDS011;26079;45.958;12.492;2023-05-10T02:23:57;2.13;;;1.80;;
40373;SDS011;26079;45.958;12.492;2023-05-10T02:26:26;2.05;;;1.90;;
40373;SDS011;26079;45.958;12.492;2023-05-10T02:28:53;3.33;;;2.17;;
40373;SDS011;26079;45.958;12.492;2023-05-10T02:31:20;4.05;;;1.67;;
40373;SDS011;26079;45.958;12.492;2023-05-10T02:33:46;1.65;;;1.55;;
40373;SDS011;26079;45.958;12.492;2023-05-10T02:36:14;1.90;;;1.80;;
40373;SDS011;26079;45.958;12.492;2023-05-10T02:38:41;1.75;;;1.65;;
40373;SDS011;26079;45.958;12.492;2023-05-10T02:41:07;1.85;;;1.73;;
40373;SDS011;26079;45.958;12.492;2023-05-10T02:43:35;1.75;;;1.65;;
40373;SDS011;26079;45.958;12.492;2023-05-10T02:46:02;2.22;;;2.13;;
40373;SDS011;26079;45.958;12.492;2023-05-10T02:48:28;4.45;;;2.65;;
40373;SDS011;26079;45.958;12.492;2023-05-10T02:50:55;8.88;;;2.65;;
40373;SDS011;26079;45.958;12.492;2023-05-10T02:53:30;2.92;;;2.60;;
40373;SDS011;26079;45.958;12.492;2023-05-10T02:55:58;6.13;;;1.88;;
40373;SDS011;26079;45.958;12.492;2023-05-10T02:58:26;3.15;;;1.80;;
40373;SDS011;26079;45.958;12.492;2023-05-10T03:00:52;2.53;;;2.20;;
40373;SDS011;26079;45.958;12.492;2023-05-10T03:03:18;3.45;;;2.28;;
40373;SDS011;26079;45.958;12.492;2023-05-10T03:05:44;5.90;;;5.55;;
40373;SDS011;26079;45.958;12.492;2023-05-10T03:08:10;5.75;;;5.40;;
40373;SDS011;26079;45.958;12.492;2023-05-10T03:10:38;25.10;;;23.40;;
40373;SDS011;26079;45.958;12.492;2023-05-10T03:13:29;9.50;;;8.88;;
40373;SDS011;26079;45.958;12.492;2023-05-10T03:16:06;8.07;;;7.63;;
40373;SDS011;26079;45.958;12.492;2023-05-10T03:21:08;4.78;;;4.50;;
40373;SDS011;26079;45.958;12.492;2023-05-10T03:23:44;4.32;;;3.92;;
40373;SDS011;26079;45.958;12.492;2023-05-10T03:26:14;14.38;;;13.55;;
40373;SDS011;26079;45.958;12.492;2023-05-10T03:28:45;6.18;;;5.63;;
40373;SDS011;26079;45.958;12.492;2023-05-10T03:31:13;6.80;;;6.40;;
40373;SDS011;26079;45.958;12.492;2023-05-10T03:33:46;7.30;;;6.82;;
40373;SDS011;26079;45.958;12.492;2023-05-10T03:36:13;6.88;;;6.47;;
40373;SDS011;26079;45.958;12.492;2023-05-10T03:38:39;17.77;;;16.75;;
40373;SDS011;26079;45.958;12.492;2023-05-10T03:41:04;18.60;;;17.60;;
40373;SDS011;26079;45.958;12.492;2023-05-10T03:43:30;19.10;;;17.50;;
40373;SDS011;26079;45.958;12.492;2023-05-10T03:45:55;24.23;;;22.90;;
40373;SDS011;26079;45.958;12.492;2023-05-10T03:48:21;16.73;;;15.75;;
40373;SDS011;26079;45.958;12.492;2023-05-10T03:50:47;32.60;;;30.67;;
40373;SDS011;26079;45.958;12.492;2023-05-10T03:53:14;6.97;;;6.47;;
40373;SDS011;26079;45.958;12.492;2023-05-10T03:55:40;7.40;;;6.80;;
40373;SDS011;26079;45.958;12.492;2023-05-10T03:58:05;6.55;;;6.10;;
40373;SDS011;26079;45.958;12.492;2023-05-10T04:00:31;26.70;;;25.10;;
40373;SDS011;26079;45.958;12.492;2023-05-10T04:02:57;7.20;;;6.60;;
40373;SDS011;26079;45.958;12.492;2023-05-10T04:05:23;8.07;;;6.82;;
40373;SDS011;26079;45.958;12.492;2023-05-10T04:07:49;18.90;;;17.85;;
40373;SDS011;26079;45.958;12.492;2023-05-10T04:10:16;23.60;;;22.30;;
40373;SDS011;26079;45.958;12.492;2023-05-10T04:12:42;20.20;;;19.08;;
40373;SDS011;26079;45.958;12.492;2023-05-10T04:15:08;17.60;;;16.55;;
40373;SDS011;26079;45.958;12.492;2023-05-10T04:17:34;8.73;;;8.05;;
40373;SDS011;26079;45.958;12.492;2023-05-10T04:19:59;9.98;;;9.32;;
40373;SDS011;26079;45.958;12.492;2023-05-10T04:22:25;23.25;;;21.95;;
40373;SDS011;26079;45.958;12.492;2023-05-10T04:24:52;18.83;;;17.75;;
40373;SDS011;26079;45.958;12.492;2023-05-10T04:27:18;6.72;;;6.07;;
40373;SDS011;26079;45.958;12.492;2023-05-10T04:29:43;7.60;;;6.90;;
40373;SDS011;26079;45.958;12.492;2023-05-10T04:32:09;11.75;;;10.55;;
40373;SDS011;26079;45.958;12.492;2023-05-10T04:34:35;15.85;;;14.98;;
40373;SDS011;26079;45.958;12.492;2023-05-10T04:37:01;30.10;;;28.55;;
40373;SDS011;26079;45.958;12.492;2023-05-10T04:39:27;10.48;;;9.55;;
40373;SDS011;26079;45.958;12.492;2023-05-10T04:41:52;7.15;;;6.57;;
40373;SDS011;26079;45.958;12.492;2023-05-10T04:44:18;13.20;;;12.43;;
40373;SDS011;26079;45.958;12.492;2023-05-10T04:46:44;15.88;;;14.73;;
40373;SDS011;26079;45.958;12.492;2023-05-10T04:49:09;21.48;;;20.27;;
40373;SDS011;26079;45.958;12.492;2023-05-10T04:51:35;30.35;;;28.65;;
40373;SDS011;26079;45.958;12.492;2023-05-10T04:54:00;14.43;;;13.60;;
40373;SDS011;26079;45.958;12.492;2023-05-10T04:56:26;30.45;;;28.23;;
40373;SDS011;26079;45.958;12.492;2023-05-10T04:58:52;28.17;;;26.65;;
40373;SDS011;26079;45.958;12.492;2023-05-10T05:01:17;16.23;;;15.30;;
40373;SDS011;26079;45.958;12.492;2023-05-10T05:03:43;6.43;;;5.97;;
40373;SDS011;26079;45.958;12.492;2023-05-10T05:06:08;12.32;;;11.63;;
40373;SDS011;26079;45.958;12.492;2023-05-10T05:08:34;5.70;;;5.00;;
40373;SDS011;26079;45.958;12.492;2023-05-10T05:11:00;6.53;;;6.05;;
40373;SDS011;26079;45.958;12.492;2023-05-10T05:13:26;6.25;;;4.63;;
40373;SDS011;26079;45.958;12.492;2023-05-10T05:15:51;6.07;;;5.78;;
40373;SDS011;26079;45.958;12.492;2023-05-10T05:18:17;7.03;;;6.63;;
40373;SDS011;26079;45.958;12.492;2023-05-10T05:20:42;8.38;;;7.88;;
40373;SDS011;26079;45.958;12.492;2023-05-10T05:23:08;3.67;;;3.42;;
40373;SDS011;26079;45.958;12.492;2023-05-10T05:25:34;7.05;;;6.63;;
40373;SDS011;26079;45.958;12.492;2023-05-10T05:28:00;6.72;;;6.28;;
40373;SDS011;26079;45.958;12.492;2023-05-10T05:30:26;10.55;;;8.50;;
40373;SDS011;26079;45.958;12.492;2023-05-10T05:32:52;6.75;;;6.30;;
40373;SDS011;26079;45.958;12.492;2023-05-10T05:35:18;7.30;;;6.75;;
40373;SDS011;26079;45.958;12.492;2023-05-10T05:37:43;6.60;;;6.18;;
40373;SDS011;26079;45.958;12.492;2023-05-10T05:40:13;14.55;;;13.57;;
40373;SDS011;26079;45.958;12.492;2023-05-10T05:42:39;14.88;;;14.05;;
40373;SDS011;26079;45.958;12.492;2023-05-10T05:45:05;29.52;;;27.83;;
40373;SDS011;26079;45.958;12.492;2023-05-10T05:47:31;15.85;;;14.45;;
40373;SDS011;26079;45.958;12.492;2023-05-10T05:49:57;45.42;;;42.13;;
40373;SDS011;26079;45.958;12.492;2023-05-10T05:52:22;16.40;;;11.73;;
40373;SDS011;26079;45.958;12.492;2023-05-10T05:54:48;28.77;;;26.65;;
40373;SDS011;26079;45.958;12.492;2023-05-10T05:57:14;10.93;;;10.02;;
40373;SDS011;26079;45.958;12.492;2023-05-10T05:59:39;14.70;;;13.80;;
40373;SDS011;26079;45.958;12.492;2023-05-10T06:02:08;32.97;;;31.20;;
40373;SDS011;26079;45.958;12.492;2023-05-10T06:04:35;28.65;;;27.10;;
40373;SDS011;26079;45.958;12.492;2023-05-10T06:07:00;43.03;;;40.65;;
40373;SDS011;26079;45.958;12.492;2023-05-10T06:09:26;29.90;;;28.17;;
40373;SDS011;26079;45.958;12.492;2023-05-10T06:11:52;16.05;;;15.10;;
40373;SDS011;26079;45.958;12.492;2023-05-10T06:14:17;9.60;;;9.00;;
40373;SDS011;26079;45.958;12.492;2023-05-10T06:16:45;22.27;;;20.75;;
40373;SDS011;26079;45.958;12.492;2023-05-10T06:19:11;14.13;;;12.60;;
40373;SDS011;26079;45.958;12.492;2023-05-10T06:21:37;18.00;;;16.88;;
40373;SDS011;26079;45.958;12.492;2023-05-10T06:24:02;34.95;;;32.97;;
40373;SDS011;26079;45.958;12.492;2023-05-10T06:26:28;9.48;;;8.88;;
40373;SDS011;26079;45.958;12.492;2023-05-10T06:28:54;35.67;;;33.53;;
40373;SDS011;26079;45.958;12.492;2023-05-10T06:31:20;28.80;;;27.15;;
40373;SDS011;26079;45.958;12.492;2023-05-10T06:33:45;9.07;;;8.43;;
40373;SDS011;26079;45.958;12.492;2023-05-10T06:36:11;7.78;;;5.40;;
40373;SDS011;26079;45.958;12.492;2023-05-10T06:38:38;8.52;;;7.93;;
40373;SDS011;26079;45.958;12.492;2023-05-10T06:41:03;16.08;;;15.07;;
40373;SDS011;26079;45.958;12.492;2023-05-10T06:43:29;37.97;;;35.90;;
40373;SDS011;26079;45.958;12.492;2023-05-10T06:45:55;39.88;;;36.75;;
40373;SDS011;26079;45.958;12.492;2023-05-10T06:48:20;40.58;;;38.25;;
40373;SDS011;26079;45.958;12.492;2023-05-10T06:50:46;14.85;;;13.95;;
40373;SDS011;26079;45.958;12.492;2023-05-10T06:53:12;20.05;;;18.58;;
40373;SDS011;26079;45.958;12.492;2023-05-10T06:55:38;19.10;;;15.23;;
40373;SDS011;26079;45.958;12.492;2023-05-10T06:58:04;24.40;;;22.92;;
40373;SDS011;26079;45.958;12.492;2023-05-10T07:00:30;25.42;;;24.02;;
40373;SDS011;26079;45.958;12.492;2023-05-10T07:02:55;12.85;;;12.05;;
40373;SDS011;26079;45.958;12.492;2023-05-10T07:05:21;38.90;;;36.75;;
40373;SDS011;26079;45.958;12.492;2023-05-10T07:07:47;43.75;;;41.33;;
40373;SDS011;26079;45.958;12.492;2023-05-10T07:10:13;53.20;;;50.10;;
40373;SDS011;26079;45.958;12.492;2023-05-10T07:12:38;75.68;;;71.22;;
40373;SDS011;26079;45.958;12.492;2023-05-10T07:15:04;75.65;;;71.15;;
40373;SDS011;26079;45.958;12.492;2023-05-10T07:17:31;62.28;;;58.80;;
40373;SDS011;26079;45.958;12.492;2023-05-10T07:19:58;90.75;;;85.07;;
40373;SDS011;26079;45.958;12.492;2023-05-10T07:22:24;113.68;;;105.53;;
40373;SDS011;26079;45.958;12.492;2023-05-10T07:24:49;52.67;;;49.80;;
40373;SDS011;26079;45.958;12.492;2023-05-10T07:27:15;57.13;;;53.90;;
40373;SDS011;26079;45.958;12.492;2023-05-10T07:29:41;55.50;;;52.40;;
40373;SDS011;26079;45.958;12.492;2023-05-10T07:32:07;47.10;;;44.03;;
40373;SDS011;26079;45.958;12.492;2023-05-10T07:34:32;68.32;;;64.03;;
40373;SDS011;26079;45.958;12.492;2023-05-10T07:36:58;61.78;;;57.83;;
40373;SDS011;26079;45.958;12.492;2023-05-10T07:39:24;41.50;;;39.15;;
40373;SDS011;26079;45.958;12.492;2023-05-10T07:41:50;65.53;;;61.20;;
40373;SDS011;26079;45.958;12.492;2023-05-10T07:44:16;145.55;;;133.57;;
40373;SDS011;26079;45.958;12.492;2023-05-10T07:46:44;102.93;;;95.40;;
40373;SDS011;26079;45.958;12.492;2023-05-10T07:49:09;66.88;;;62.97;;
40373;SDS011;26079;45.958;12.492;2023-05-10T07:51:35;69.57;;;65.63;;
40373;SDS011;26079;45.958;12.492;2023-05-10T07:54:00;102.10;;;95.13;;
40373;SDS011;26079;45.958;12.492;2023-05-10T07:56:28;64.20;;;60.50;;
40373;SDS011;26079;45.958;12.492;2023-05-10T07:58:56;59.63;;;56.17;;
40373;SDS011;26079;45.958;12.492;2023-05-10T08:01:26;66.25;;;62.53;;
40373;SDS011;26079;45.958;12.492;2023-05-10T08:03:54;58.05;;;54.53;;
40373;SDS011;26079;45.958;12.492;2023-05-10T08:06:20;60.65;;;57.17;;
40373;SDS011;26079;45.958;12.492;2023-05-10T08:08:46;23.10;;;21.23;;
40373;SDS011;26079;45.958;12.492;2023-05-10T08:11:16;20.83;;;19.30;;
40373;SDS011;26079;45.958;12.492;2023-05-10T08:13:42;8.93;;;7.97;;
40373;SDS011;26079;45.958;12.492;2023-05-10T08:16:08;3.13;;;2.90;;
40373;SDS011;26079;45.958;12.492;2023-05-10T08:18:34;4.82;;;4.53;;
40373;SDS011;26079;45.958;12.492;2023-05-10T08:20:59;4.78;;;4.38;;
40373;SDS011;26079;45.958;12.492;2023-05-10T08:23:25;6.82;;;6.25;;
40373;SDS011;26079;45.958;12.492;2023-05-10T08:25:51;6.07;;;3.08;;
40373;SDS011;26079;45.958;12.492;2023-05-10T08:28:16;4.15;;;3.10;;
40373;SDS011;26079;45.958;12.492;2023-05-10T08:30:42;11.48;;;10.80;;
40373;SDS011;26079;45.958;12.492;2023-05-10T08:33:07;8.75;;;8.05;;
40373;SDS011;26079;45.958;12.492;2023-05-10T08:35:33;8.68;;;8.02;;
40373;SDS011;26079;45.958;12.492;2023-05-10T08:38:00;4.35;;;4.05;;
40373;SDS011;26079;45.958;12.492;2023-05-10T08:40:26;30.05;;;28.38;;
40373;SDS011;26079;45.958;12.492;2023-05-10T08:43:04;25.98;;;24.42;;
40373;SDS011;26079;45.958;12.492;2023-05-10T08:45:39;17.15;;;16.13;;
40373;SDS011;26079;45.958;12.492;2023-05-10T08:48:09;16.98;;;15.88;;
40373;SDS011;26079;45.958;12.492;2023-05-10T08:50:37;27.42;;;25.95;;
40373;SDS011;26079;45.958;12.492;2023-05-10T08:53:10;38.33;;;36.13;;
40373;SDS011;26079;45.958;12.492;2023-05-10T08:55:38;30.27;;;28.40;;
40373;SDS011;26079;45.958;12.492;2023-05-10T08:58:05;30.65;;;28.95;;
40373;SDS011;26079;45.958;12.492;2023-05-10T09:00:31;36.80;;;34.78;;
40373;SDS011;26079;45.958;12.492;2023-05-10T09:02:58;32.95;;;30.98;;
40373;SDS011;26079;45.958;12.492;2023-05-10T09:05:25;39.38;;;37.25;;
40373;SDS011;26079;45.958;12.492;2023-05-10T09:07:51;24.35;;;22.85;;
40373;SDS011;26079;45.958;12.492;2023-05-10T09:10:17;26.83;;;25.20;;
40373;SDS011;26079;45.958;12.492;2023-05-10T09:12:43;25.55;;;24.08;;
40373;SDS011;26079;45.958;12.492;2023-05-10T09:15:11;17.33;;;16.25;;
40373;SDS011;26079;45.958;12.492;2023-05-10T09:17:40;45.20;;;42.70;;
40373;SDS011;26079;45.958;12.492;2023-05-10T09:20:08;46.05;;;43.40;;
40373;SDS011;26079;45.958;12.492;2023-05-10T09:22:34;38.97;;;36.63;;
40373;SDS011;26079;45.958;12.492;2023-05-10T09:25:34;44.75;;;42.20;;
40373;SDS011;26079;45.958;12.492;2023-05-10T09:27:52;34.63;;;32.45;;
40373;SDS011;26079;45.958;12.492;2023-05-10T09:30:28;42.97;;;39.58;;
40373;SDS011;26079;45.958;12.492;2023-05-10T09:32:56;36.30;;;34.05;;
40373;SDS011;26079;45.958;12.492;2023-05-10T09:35:23;36.70;;;34.58;;
40373;SDS011;26079;45.958;12.492;2023-05-10T09:37:51;67.03;;;62.72;;
40373;SDS011;26079;45.958;12.492;2023-05-10T09:40:22;55.42;;;52.10;;
40373;SDS011;26079;45.958;12.492;2023-05-10T09:48:00;22.02;;;20.33;;
40373;SDS011;26079;45.958;12.492;2023-05-10T09:50:27;29.17;;;27.20;;
40373;SDS011;26079;45.958;12.492;2023-05-10T09:53:00;36.33;;;33.95;;
40373;SDS011;26079;45.958;12.492;2023-05-10T09:55:38;43.05;;;40.65;;
40373;SDS011;26079;45.958;12.492;2023-05-10T09:58:11;50.13;;;47.28;;
40373;SDS011;26079;45.958;12.492;2023-05-10T10:00:38;74.68;;;70.40;;
40373;SDS011;26079;45.958;12.492;2023-05-10T10:03:06;79.55;;;74.50;;
40373;SDS011;26079;45.958;12.492;2023-05-10T10:05:36;85.15;;;80.25;;
40373;SDS011;26079;45.958;12.492;2023-05-10T10:08:05;54.90;;;51.60;;
40373;SDS011;26079;45.958;12.492;2023-05-10T10:10:32;49.85;;;47.10;;
40373;SDS011;26079;45.958;12.492;2023-05-10T10:12:58;71.22;;;66.13;;
40373;SDS011;26079;45.958;12.492;2023-05-10T10:15:25;52.05;;;49.17;;
40373;SDS011;26079;45.958;12.492;2023-05-10T10:17:51;59.58;;;56.35;;
40373;SDS011;26079;45.958;12.492;2023-05-10T10:20:18;66.03;;;62.30;;
40373;SDS011;26079;45.958;12.492;2023-05-10T10:22:46;63.05;;;59.65;;
40373;SDS011;26079;45.958;12.492;2023-05-10T10:25:12;71.00;;;67.07;;
40373;SDS011;26079;45.958;12.492;2023-05-10T10:27:43;60.25;;;56.80;;
40373;SDS011;26079;45.958;12.492;2023-05-10T10:30:28;63.50;;;59.70;;
40373;SDS011;26079;45.958;12.492;2023-05-10T10:33:13;60.63;;;57.25;;
40373;SDS011;26079;45.958;12.492;2023-05-10T10:36:05;69.80;;;65.90;;
40373;SDS011;26079;45.958;12.492;2023-05-10T10:41:34;79.32;;;74.80;;
40373;SDS011;26079;45.958;12.492;2023-05-10T10:47:06;74.22;;;69.97;;
40373;SDS011;26079;45.958;12.492;2023-05-10T10:50:01;70.25;;;66.22;;
40373;SDS011;26079;45.958;12.492;2023-05-10T10:52:32;66.03;;;62.13;;
40373;SDS011;26079;45.958;12.492;2023-05-10T11:00:18;53.22;;;49.92;;
40373;SDS011;26079;45.958;12.492;2023-05-10T11:05:47;71.85;;;67.32;;
40373;SDS011;26079;45.958;12.492;2023-05-10T11:08:15;89.75;;;83.65;;
40373;SDS011;26079;45.958;12.492;2023-05-10T11:10:49;70.95;;;66.93;;
40373;SDS011;26079;45.958;12.492;2023-05-10T11:13:33;63.92;;;60.20;;
40373;SDS011;26079;45.958;12.492;2023-05-10T11:16:10;98.45;;;91.90;;
40373;SDS011;26079;45.958;12.492;2023-05-10T11:18:36;81.57;;;76.47;;
40373;SDS011;26079;45.958;12.492;2023-05-10T11:21:02;84.53;;;79.65;;
40373;SDS011;26079;45.958;12.492;2023-05-10T11:26:07;78.38;;;73.82;;
40373;SDS011;26079;45.958;12.492;2023-05-10T11:28:41;74.90;;;70.47;;
40373;SDS011;26079;45.958;12.492;2023-05-10T11:31:15;82.72;;;77.25;;
40373;SDS011;26079;45.958;12.492;2023-05-10T11:33:49;106.40;;;99.07;;
40373;SDS011;26079;45.958;12.492;2023-05-10T11:36:20;88.35;;;82.80;;
40373;SDS011;26079;45.958;12.492;2023-05-10T11:38:48;93.20;;;87.03;;
40373;SDS011;26079;45.958;12.492;2023-05-10T11:41:15;79.20;;;74.43;;
40373;SDS011;26079;45.958;12.492;2023-05-10T11:43:42;110.47;;;104.03;;
40373;SDS011;26079;45.958;12.492;2023-05-10T11:46:09;68.80;;;64.68;;
40373;SDS011;26079;45.958;12.492;2023-05-10T11:48:38;77.72;;;73.35;;
40373;SDS011;26079;45.958;12.492;2023-05-10T11:51:06;141.25;;;132.48;;
40373;SDS011;26079;45.958;12.492;2023-05-10T11:53:35;80.88;;;75.70;;
40373;SDS011;26079;45.958;12.492;2023-05-10T11:56:08;71.18;;;67.00;;
40373;SDS011;26079;45.958;12.492;2023-05-10T11:58:35;87.25;;;81.63;;
40373;SDS011;26079;45.958;12.492;2023-05-10T12:01:02;127.65;;;118.20;;
40373;SDS011;26079;45.958;12.492;2023-05-10T12:03:29;228.43;;;207.05;;
40373;SDS011;26079;45.958;12.492;2023-05-10T12:05:55;80.88;;;75.75;;
40373;SDS011;26079;45.958;12.492;2023-05-10T12:08:23;63.38;;;59.67;;
40373;SDS011;26079;45.958;12.492;2023-05-10T12:10:50;93.15;;;87.45;;
40373;SDS011;26079;45.958;12.492;2023-05-10T12:13:16;97.88;;;91.28;;
40373;SDS011;26079;45.958;12.492;2023-05-10T12:15:42;97.03;;;90.68;;
40373;SDS011;26079;45.958;12.492;2023-05-10T12:18:12;76.60;;;72.00;;
40373;SDS011;26079;45.958;12.492;2023-05-10T12:20:38;100.35;;;93.47;;
40373;SDS011;26079;45.958;12.492;2023-05-10T12:23:05;95.68;;;89.25;;
40373;SDS011;26079;45.958;12.492;2023-05-10T12:25:31;123.57;;;114.38;;
40373;SDS011;26079;45.958;12.492;2023-05-10T12:27:59;118.97;;;110.93;;
40373;SDS011;26079;45.958;12.492;2023-05-10T12:30:28;144.93;;;134.40;;
40373;SDS011;26079;45.958;12.492;2023-05-10T12:33:17;160.23;;;148.18;;
40373;SDS011;26079;45.958;12.492;2023-05-10T12:35:46;125.57;;;116.68;;
40373;SDS011;26079;45.958;12.492;2023-05-10T12:38:26;93.70;;;88.10;;
40373;SDS011;26079;45.958;12.492;2023-05-10T12:40:54;89.43;;;84.43;;
40373;SDS011;26079;45.958;12.492;2023-05-10T12:43:23;149.65;;;138.40;;
40373;SDS011;26079;45.958;12.492;2023-05-10T12:45:49;101.47;;;95.13;;
40373;SDS011;26079;45.958;12.492;2023-05-10T12:48:15;110.57;;;103.18;;
40373;SDS011;26079;45.958;12.492;2023-05-10T12:50:40;86.68;;;81.18;;
40373;SDS011;26079;45.958;12.492;2023-05-10T12:53:06;146.52;;;136.23;;
40373;SDS011;26079;45.958;12.492;2023-05-10T12:55:32;123.93;;;114.85;;
40373;SDS011;26079;45.958;12.492;2023-05-10T12:57:58;103.75;;;96.72;;
40373;SDS011;26079;45.958;12.492;2023-05-10T13:00:23;236.80;;;216.73;;
40373;SDS011;26079;45.958;12.492;2023-05-10T13:02:56;216.40;;;198.45;;
40373;SDS011;26079;45.958;12.492;2023-05-10T13:05:22;122.88;;;114.75;;
40373;SDS011;26079;45.958;12.492;2023-05-10T13:07:47;136.02;;;126.53;;
40373;SDS011;26079;45.958;12.492;2023-05-10T13:10:13;104.60;;;97.63;;
40373;SDS011;26079;45.958;12.492;2023-05-10T13:12:39;122.03;;;114.10;;
40373;SDS011;26079;45.958;12.492;2023-05-10T13:15:05;113.95;;;106.55;;
40373;SDS011;26079;45.958;12.492;2023-05-10T13:17:31;137.00;;;127.50;;
40373;SDS011;26079;45.958;12.492;2023-05-10T13:19:57;134.10;;;125.10;;
40373;SDS011;26079;45.958;12.492;2023-05-10T13:22:22;129.43;;;120.65;;
40373;SDS011;26079;45.958;12.492;2023-05-10T13:24:48;161.98;;;149.57;;
40373;SDS011;26079;45.958;12.492;2023-05-10T13:27:14;156.82;;;145.07;;
40373;SDS011;26079;45.958;12.492;2023-05-10T13:29:40;101.00;;;94.47;;
40373;SDS011;26079;45.958;12.492;2023-05-10T13:32:05;162.40;;;151.00;;
40373;SDS011;26079;45.958;12.492;2023-05-10T13:34:31;104.80;;;98.20;;
40373;SDS011;26079;45.958;12.492;2023-05-10T13:36:57;156.77;;;145.25;;
40373;SDS011;26079;45.958;12.492;2023-05-10T13:39:23;174.77;;;160.18;;
40373;SDS011;26079;45.958;12.492;2023-05-10T13:41:48;187.52;;;172.35;;
40373;SDS011;26079;45.958;12.492;2023-05-10T13:44:14;144.10;;;131.13;;
40373;SDS011;26079;45.958;12.492;2023-05-10T13:46:40;138.70;;;129.15;;
40373;SDS011;26079;45.958;12.492;2023-05-10T13:49:08;207.35;;;189.57;;
40373;SDS011;26079;45.958;12.492;2023-05-10T13:51:34;108.35;;;101.45;;
40373;SDS011;26079;45.958;12.492;2023-05-10T13:54:01;90.75;;;85.35;;
40373;SDS011;26079;45.958;12.492;2023-05-10T13:56:27;149.82;;;139.32;;
40373;SDS011;26079;45.958;12.492;2023-05-10T13:58:53;130.55;;;121.68;;
40373;SDS011;26079;45.958;12.492;2023-05-10T14:01:19;142.50;;;132.13;;
40373;SDS011;26079;45.958;12.492;2023-05-10T14:03:44;264.48;;;241.63;;
40373;SDS011;26079;45.958;12.492;2023-05-10T14:06:10;156.50;;;144.70;;
40373;SDS011;26079;45.958;12.492;2023-05-10T14:08:36;101.45;;;94.45;;
40373;SDS011;26079;45.958;12.492;2023-05-10T14:11:02;211.27;;;192.73;;
40373;SDS011;26079;45.958;12.492;2023-05-10T14:13:27;126.88;;;117.30;;
40373;SDS011;26079;45.958;12.492;2023-05-10T14:15:53;274.50;;;249.68;;
40373;SDS011;26079;45.958;12.492;2023-05-10T14:18:19;187.10;;;172.38;;
40373;SDS011;26079;45.958;12.492;2023-05-10T14:20:45;132.73;;;123.47;;
40373;SDS011;26079;45.958;12.492;2023-05-10T14:23:11;191.32;;;175.35;;
40373;SDS011;26079;45.958;12.492;2023-05-10T14:25:37;206.90;;;190.40;;
40373;SDS011;26079;45.958;12.492;2023-05-10T14:28:05;129.48;;;119.88;;
40373;SDS011;26079;45.958;12.492;2023-05-10T14:30:31;184.93;;;170.60;;
40373;SDS011;26079;45.958;12.492;2023-05-10T14:32:57;308.48;;;281.05;;
40373;SDS011;26079;45.958;12.492;2023-05-10T14:35:23;315.90;;;287.45;;
40373;SDS011;26079;45.958;12.492;2023-05-10T14:37:50;268.30;;;245.57;;
40373;SDS011;26079;45.958;12.492;2023-05-10T14:40:15;243.27;;;222.52;;
40373;SDS011;26079;45.958;12.492;2023-05-10T14:42:42;245.65;;;221.00;;
40373;SDS011;26079;45.958;12.492;2023-05-10T14:45:08;275.73;;;250.32;;
40373;SDS011;26079;45.958;12.492;2023-05-10T14:47:35;279.05;;;253.02;;
40373;SDS011;26079;45.958;12.492;2023-05-10T14:50:00;166.52;;;153.70;;
40373;SDS011;26079;45.958;12.492;2023-05-10T14:52:26;303.48;;;275.75;;
40373;SDS011;26079;45.958;12.492;2023-05-10T14:54:52;317.85;;;286.38;;